Weather at Cape Fear Regional Jetport / Howie Franklin Field Airport

Public forecast

Using degrees Fahrenheit for public forecast. Weather courtesy of forecast.io.

Current aviation weather report (METAR) for Cape Fear Regional Jetport / Howie Franklin Field Airport

2024/06/23 05:30 (retrieved 22 minutes ago)

KSUT 230530Z AUTO 21006KT 10SM SCT019 SCT024 26/24 A3006 RMK AO2 T02640235

Closest aviation forecast (TAF) to Cape Fear Regional Jetport / Howie Franklin Field Airport

Forecast is more than 12 hours old.

Closest forecast is MCAS New River / McCutcheon Field, 56.4 nm (104.4 km) NE.

2024/06/22 10:14 Ammendment (retrieved 20 hours ago)

TAF AMD KNCA 2210/2309 VRB06KT 9999 FEW050 SCT090 QNH3011INS TEMPO 2210/2212 0800 FG SCT005 BKN050 FM221600 21010KT 9999 BKN040 QNH3001INS TEMPO 2216/2222 21010G15KT 9000 -SHRA BR BKN020 FM222230 20010G15KT 9999 BKN050 QNH2999INS TEMPO 2305/2309 20010KT 1600 BR T32/2218Z T22/2308Z AMD 1002